Ameagle, West Virginia
Current Conditions -  °F | °C
As of 8:51 PM on Monday 24 Nov 2014 (Local Time) from KBKW Reporting Station
Clear Clear  
Wind Chill: 55°   Ceiling: Unl
Heat Index: 55°   Visibility: 10mi
Dew Point: 37°   Wind: 9mph
Humidity: 51%   Direction: 280°W
Pressure: 29.86"   Gusts: NA
Location:  37.95°N, 81.42°W
Report Text: KBKW 250151Z AUTO 28008KT 10SM CLR 13/03 A2986 RMK AO2 SLP096 T01280028
Loading
Personal Weather Stations






























Interactive Weather Map New forecast layout! Learn more

10-Day Weather Forecast

Advertisements
Track Severe Weather on mobile